createdAt,value
2016-07-07T00:00:26.264Z,0
2016-07-07T00:01:26.277Z,0
2016-07-07T00:02:26.308Z,0
2016-07-07T00:03:26.335Z,0
2016-07-07T00:04:26.373Z,0
2016-07-07T00:05:26.255Z,0
2016-07-07T00:06:26.022Z,0
2016-07-07T00:07:26.244Z,0
2016-07-07T00:08:26.253Z,0
2016-07-07T00:09:26.198Z,0
2016-07-07T00:10:26.190Z,0
2016-07-07T00:11:26.306Z,0
2016-07-07T00:12:26.246Z,0
2016-07-07T00:13:26.188Z,0
2016-07-07T00:14:26.181Z,0
2016-07-07T00:15:26.168Z,0
2016-07-07T00:16:25.989Z,0
2016-07-07T00:17:26.172Z,0
2016-07-07T00:18:25.981Z,0
2016-07-07T00:19:25.932Z,0
2016-07-07T00:20:26.076Z,0
2016-07-07T00:21:26.073Z,0
2016-07-07T00:22:26.122Z,0
2016-07-07T00:23:26.067Z,0
2016-07-07T00:24:26.198Z,0
2016-07-07T00:25:26.032Z,0
2016-07-07T00:26:26.092Z,0
2016-07-07T00:27:26.090Z,0
2016-07-07T00:28:25.996Z,0
2016-07-07T00:29:26.127Z,0
2016-07-07T00:30:26.089Z,0
2016-07-07T00:31:25.741Z,0
2016-07-07T00:32:25.923Z,0
2016-07-07T00:33:25.824Z,0
2016-07-07T00:34:25.799Z,0
2016-07-07T00:35:25.882Z,0
2016-07-07T00:36:25.774Z,0
2016-07-07T00:37:25.991Z,0
2016-07-07T00:38:26.569Z,0
2016-07-07T00:39:25.967Z,0
2016-07-07T00:40:25.951Z,0
2016-07-07T00:41:25.843Z,0
2016-07-07T00:42:25.984Z,0
2016-07-07T00:43:25.889Z,0
2016-07-07T00:44:26.499Z,0
2016-07-07T00:45:25.884Z,0
2016-07-07T00:46:25.781Z,0
2016-07-07T00:47:25.945Z,0
2016-07-07T00:48:25.888Z,0
2016-07-07T00:49:25.864Z,0
2016-07-07T00:50:25.959Z,0
2016-07-07T00:51:25.722Z,0
2016-07-07T00:52:25.866Z,0
2016-07-07T00:53:25.816Z,0
2016-07-07T00:54:25.898Z,0
2016-07-07T00:55:25.756Z,0
2016-07-07T00:56:25.758Z,0
2016-07-07T00:57:25.835Z,0
2016-07-07T00:58:25.783Z,0
2016-07-07T00:59:26.414Z,0
2016-07-07T01:00:25.642Z,0
2016-07-07T01:01:25.570Z,0
2016-07-07T01:02:25.904Z,0
2016-07-07T01:03:25.729Z,0
2016-07-07T01:04:25.647Z,0
2016-07-07T01:05:26.071Z,0
2016-07-07T01:06:25.525Z,0
2016-07-07T01:07:25.638Z,0
2016-07-07T01:08:25.750Z,0
2016-07-07T01:09:25.762Z,0
2016-07-07T01:10:25.734Z,0
2016-07-07T01:11:25.585Z,0
2016-07-07T01:12:26.228Z,0
2016-07-07T01:13:25.725Z,0
2016-07-07T01:14:25.418Z,0
2016-07-07T01:15:25.666Z,0
2016-07-07T01:16:25.572Z,0
2016-07-07T01:17:25.605Z,0
2016-07-07T01:18:25.681Z,0
2016-07-07T01:19:25.524Z,0
2016-07-07T01:20:25.599Z,0
2016-07-07T01:21:25.453Z,0
2016-07-07T01:22:25.540Z,0
2016-07-07T01:23:25.624Z,0
2016-07-07T01:24:25.539Z,0
2016-07-07T01:25:25.547Z,0
2016-07-07T01:26:25.581Z,0
2016-07-07T01:27:25.494Z,0
2016-07-07T01:28:25.559Z,0
2016-07-07T01:29:25.315Z,0
2016-07-07T01:30:25.545Z,0
2016-07-07T01:31:25.304Z,0
2016-07-07T01:32:25.285Z,0
2016-07-07T01:33:25.370Z,0
2016-07-07T01:34:25.345Z,0
2016-07-07T01:35:25.434Z,0
2016-07-07T01:36:25.440Z,0
2016-07-07T01:37:25.420Z,0
2016-07-07T01:38:25.420Z,0
2016-07-07T01:39:25.218Z,0
2016-07-07T01:40:25.185Z,0
2016-07-07T01:41:25.371Z,0
2016-07-07T01:42:25.190Z,0
2016-07-07T01:43:25.382Z,0
2016-07-07T01:44:25.381Z,0
2016-07-07T01:45:25.310Z,0
2016-07-07T01:46:25.286Z,0
2016-07-07T01:47:25.374Z,0
2016-07-07T01:48:25.145Z,0
2016-07-07T01:49:25.185Z,0
2016-07-07T01:50:25.285Z,0
2016-07-07T01:51:25.255Z,0
2016-07-07T01:52:25.266Z,0
2016-07-07T01:53:25.058Z,0
2016-07-07T01:54:25.218Z,0
2016-07-07T01:55:25.253Z,0
2016-07-07T01:56:25.306Z,0
2016-07-07T01:57:25.172Z,0
2016-07-07T01:58:25.219Z,0
2016-07-07T01:59:25.100Z,0
2016-07-07T02:00:25.089Z,0
2016-07-07T02:01:25.169Z,0
2016-07-07T02:02:25.154Z,0
2016-07-07T02:03:25.167Z,0
2016-07-07T02:04:25.023Z,0
2016-07-07T02:05:24.936Z,0
2016-07-07T02:06:25.130Z,0
2016-07-07T02:07:25.214Z,0
2016-07-07T02:08:25.187Z,0
2016-07-07T02:09:25.147Z,0
2016-07-07T02:10:25.120Z,0
2016-07-07T02:11:25.104Z,0
2016-07-07T02:12:24.913Z,0
2016-07-07T02:13:25.139Z,0
2016-07-07T02:14:25.128Z,0
2016-07-07T02:15:25.139Z,0
2016-07-07T02:16:25.083Z,0
2016-07-07T02:17:25.100Z,0
2016-07-07T02:18:25.063Z,0
2016-07-07T02:19:25.071Z,0
2016-07-07T02:20:25.014Z,0
2016-07-07T02:21:25.030Z,0
2016-07-07T02:22:24.946Z,0
2016-07-07T02:23:25.651Z,0
2016-07-07T02:24:25.024Z,4
2016-07-07T02:25:24.927Z,4
2016-07-07T02:26:24.946Z,0
2016-07-07T02:27:24.974Z,0
2016-07-07T02:28:24.772Z,4
2016-07-07T02:29:24.891Z,4
2016-07-07T02:30:24.932Z,4
2016-07-07T02:31:24.903Z,4
2016-07-07T02:32:24.956Z,4
2016-07-07T02:33:25.025Z,4
2016-07-07T02:34:24.765Z,4
2016-07-07T02:35:24.741Z,4
2016-07-07T02:36:24.875Z,8
2016-07-07T02:37:24.739Z,8
2016-07-07T02:38:24.919Z,8
2016-07-07T02:39:24.810Z,8
2016-07-07T02:40:24.828Z,12
2016-07-07T02:41:24.801Z,12
2016-07-07T02:42:25.519Z,16
2016-07-07T02:43:24.790Z,16
2016-07-07T02:44:24.849Z,20
2016-07-07T02:45:24.813Z,24
2016-07-07T02:46:24.816Z,24
2016-07-07T02:47:24.812Z,28
2016-07-07T02:48:24.648Z,32
2016-07-07T02:49:24.734Z,32
2016-07-07T02:50:24.694Z,40
2016-07-07T02:51:24.714Z,40
2016-07-07T02:52:24.744Z,44
2016-07-07T02:53:24.725Z,48
2016-07-07T02:54:24.729Z,52
2016-07-07T02:55:25.310Z,60
2016-07-07T02:56:24.715Z,68
2016-07-07T02:57:24.605Z,76
2016-07-07T02:58:24.601Z,84
2016-07-07T02:59:24.675Z,92
2016-07-07T03:00:24.673Z,100
2016-07-07T03:01:24.538Z,108
2016-07-07T03:02:24.683Z,112
2016-07-07T03:03:24.693Z,120
2016-07-07T03:04:24.566Z,132
2016-07-07T03:05:24.544Z,144
2016-07-07T03:06:24.554Z,156
2016-07-07T03:07:24.630Z,164
2016-07-07T03:08:24.498Z,180
2016-07-07T03:09:24.497Z,192
2016-07-07T03:10:24.539Z,208
2016-07-07T03:11:24.573Z,224
2016-07-07T03:12:24.623Z,236
2016-07-07T03:13:24.626Z,256
2016-07-07T03:14:24.627Z,272
2016-07-07T03:15:24.618Z,292
2016-07-07T03:16:24.605Z,312
2016-07-07T03:17:24.717Z,336
2016-07-07T03:18:24.478Z,364
2016-07-07T03:19:24.421Z,396
2016-07-07T03:20:24.424Z,424
2016-07-07T03:21:24.447Z,460
2016-07-07T03:22:24.407Z,496
2016-07-07T03:23:24.378Z,532
2016-07-07T03:24:24.376Z,568
2016-07-07T03:25:24.413Z,604
2016-07-07T03:26:24.410Z,652
2016-07-07T03:27:24.418Z,696
2016-07-07T03:28:24.401Z,748
2016-07-07T03:29:24.490Z,792
2016-07-07T03:30:24.363Z,828
2016-07-07T03:31:24.372Z,868
2016-07-07T03:32:24.525Z,912
2016-07-07T03:33:24.366Z,952
2016-07-07T03:34:24.313Z,1000
2016-07-07T03:35:24.290Z,1040
2016-07-07T03:36:24.346Z,1088
2016-07-07T03:37:24.321Z,1148
2016-07-07T03:38:24.949Z,1208
2016-07-07T03:39:24.393Z,1260
2016-07-07T03:40:24.284Z,1280
2016-07-07T03:41:24.352Z,1284
2016-07-07T03:42:24.356Z,1280
2016-07-07T03:43:24.504Z,1264
2016-07-07T03:44:24.261Z,1260
2016-07-07T03:45:24.453Z,1276
2016-07-07T03:46:24.296Z,1324
2016-07-07T03:47:24.239Z,1376
2016-07-07T03:48:24.269Z,1436
2016-07-07T03:49:24.274Z,1492
2016-07-07T03:50:24.401Z,1548
2016-07-07T03:51:24.944Z,1596
2016-07-07T03:52:24.180Z,1640
2016-07-07T03:53:24.319Z,1664
2016-07-07T03:54:24.191Z,1648
2016-07-07T03:55:24.187Z,1624
2016-07-07T03:56:24.118Z,1592
2016-07-07T03:57:24.150Z,1584
2016-07-07T03:58:24.232Z,1612
2016-07-07T03:59:24.151Z,1640
2016-07-07T04:00:24.785Z,1664
2016-07-07T04:01:24.246Z,1720
2016-07-07T04:02:24.038Z,1796
2016-07-07T04:03:24.291Z,1888
2016-07-07T04:04:24.101Z,1952
2016-07-07T04:05:24.281Z,1932
2016-07-07T04:06:24.103Z,1924
2016-07-07T04:07:24.074Z,1948
2016-07-07T04:08:24.141Z,1936
2016-07-07T04:09:24.194Z,1952
2016-07-07T04:10:24.206Z,1976
2016-07-07T04:11:24.091Z,2060
2016-07-07T04:12:24.048Z,2220
2016-07-07T04:13:24.158Z,2380
2016-07-07T04:14:24.018Z,2484
2016-07-07T04:15:24.037Z,2540
2016-07-07T04:16:24.120Z,2612
2016-07-07T04:17:24.012Z,2664
2016-07-07T04:18:23.993Z,2716
2016-07-07T04:19:23.991Z,2744
2016-07-07T04:20:24.160Z,2768
2016-07-07T04:21:23.980Z,2844
2016-07-07T04:22:23.971Z,2960
2016-07-07T04:23:23.943Z,3084
2016-07-07T04:24:24.124Z,3196
2016-07-07T04:25:24.187Z,3280
2016-07-07T04:26:23.937Z,3364
2016-07-07T04:27:24.086Z,3560
2016-07-07T04:28:23.956Z,3880
2016-07-07T04:29:23.940Z,4216
2016-07-07T04:30:24.035Z,4492
2016-07-07T04:31:23.895Z,4668
2016-07-07T04:32:24.054Z,4740
2016-07-07T04:33:23.935Z,4732
2016-07-07T04:34:23.898Z,4688
2016-07-07T04:35:23.925Z,4572
2016-07-07T04:36:23.908Z,4356
2016-07-07T04:37:23.895Z,4096
2016-07-07T04:38:23.900Z,3908
2016-07-07T04:39:23.855Z,3860
2016-07-07T04:40:23.804Z,3996
2016-07-07T04:41:23.834Z,4224
2016-07-07T04:42:23.835Z,4444
2016-07-07T04:43:24.530Z,4644
2016-07-07T04:44:23.946Z,4712
2016-07-07T04:45:23.816Z,4580
2016-07-07T04:46:23.799Z,4516
2016-07-07T04:47:23.808Z,4720
2016-07-07T04:48:23.984Z,4932
2016-07-07T04:49:23.903Z,4900
2016-07-07T04:50:23.771Z,4836
2016-07-07T04:51:23.768Z,4856
2016-07-07T04:52:23.743Z,4920
2016-07-07T04:53:23.750Z,4952
2016-07-07T04:54:23.747Z,4932
2016-07-07T04:55:23.768Z,4792
2016-07-07T04:56:23.745Z,4564
2016-07-07T04:57:23.743Z,4460
2016-07-07T04:58:23.705Z,4392
2016-07-07T04:59:23.702Z,4320
2016-07-07T05:00:23.717Z,4248
2016-07-07T05:01:23.845Z,4204
2016-07-07T05:02:23.750Z,4180
2016-07-07T05:03:23.749Z,4172
2016-07-07T05:04:23.651Z,4176
2016-07-07T05:05:23.722Z,4176
2016-07-07T05:06:23.697Z,4168
2016-07-07T05:07:23.655Z,4152
2016-07-07T05:08:23.693Z,4128
2016-07-07T05:09:23.770Z,4136
2016-07-07T05:10:23.655Z,4184
2016-07-07T05:11:23.664Z,4264
2016-07-07T05:12:23.667Z,4344
2016-07-07T05:13:23.657Z,4428
2016-07-07T05:14:24.291Z,4536
2016-07-07T05:15:23.558Z,4652
2016-07-07T05:16:23.742Z,4788
2016-07-07T05:17:23.516Z,4976
2016-07-07T05:18:23.616Z,5316
2016-07-07T05:19:23.607Z,5912
2016-07-07T05:20:23.747Z,6436
2016-07-07T05:21:23.749Z,6700
2016-07-07T05:22:23.592Z,6756
2016-07-07T05:23:23.603Z,6696
2016-07-07T05:24:23.586Z,6412
2016-07-07T05:25:23.589Z,5848
2016-07-07T05:26:23.641Z,5244
2016-07-07T05:27:23.481Z,4960
2016-07-07T05:28:23.606Z,4796
2016-07-07T05:29:23.576Z,4720
2016-07-07T05:30:23.465Z,4596
2016-07-07T05:31:23.673Z,4644
2016-07-07T05:32:23.558Z,4680
2016-07-07T05:33:23.526Z,4684
2016-07-07T05:34:23.549Z,4920
2016-07-07T05:35:23.539Z,5024
2016-07-07T05:36:23.631Z,5220
2016-07-07T05:37:23.510Z,5352
2016-07-07T05:38:23.633Z,5328
2016-07-07T05:39:23.608Z,5340
2016-07-07T05:40:23.666Z,5388
2016-07-07T05:41:23.585Z,5604
2016-07-07T05:42:23.355Z,5960
2016-07-07T05:43:23.437Z,6560
2016-07-07T05:44:23.449Z,7116
2016-07-07T05:45:23.468Z,7392
2016-07-07T05:46:23.462Z,7108
2016-07-07T05:47:23.369Z,6832
2016-07-07T05:48:23.416Z,6808
2016-07-07T05:49:23.588Z,7092
2016-07-07T05:50:23.413Z,7516
2016-07-07T05:51:23.568Z,7968
2016-07-07T05:52:23.286Z,8020
2016-07-07T05:53:23.471Z,7872
2016-07-07T05:54:23.581Z,7716
2016-07-07T05:55:23.573Z,7528
2016-07-07T05:56:23.479Z,7380
2016-07-07T05:57:23.363Z,7364
2016-07-07T05:58:23.569Z,7636
2016-07-07T05:59:23.373Z,8132
2016-07-07T06:00:23.367Z,8436
2016-07-07T06:01:23.379Z,8020
2016-07-07T06:02:23.464Z,7900
2016-07-07T06:03:23.366Z,7940
2016-07-07T06:04:23.493Z,8552
2016-07-07T06:05:23.341Z,9208
2016-07-07T06:06:23.501Z,10008
2016-07-07T06:07:23.425Z,11200
2016-07-07T06:08:23.419Z,11784
2016-07-07T06:09:23.334Z,10868
2016-07-07T06:10:23.489Z,9616
2016-07-07T06:11:23.486Z,9340
2016-07-07T06:12:23.317Z,9576
2016-07-07T06:13:23.431Z,10936
2016-07-07T06:14:23.418Z,10608
2016-07-07T06:15:23.286Z,8788
2016-07-07T06:16:23.427Z,8068
2016-07-07T06:17:23.422Z,8448
2016-07-07T06:18:23.305Z,9924
2016-07-07T06:19:23.417Z,10380
2016-07-07T06:20:23.405Z,9684
2016-07-07T06:21:23.384Z,9480
2016-07-07T06:22:23.357Z,9472
2016-07-07T06:23:23.393Z,9940
2016-07-07T06:24:23.304Z,10284
2016-07-07T06:25:23.371Z,9876
2016-07-07T06:26:23.315Z,8204
2016-07-07T06:27:23.287Z,7132
2016-07-07T06:28:23.275Z,6904
2016-07-07T06:29:23.430Z,7988
2016-07-07T06:30:23.338Z,9080
2016-07-07T06:31:23.234Z,10788
2016-07-07T06:32:23.273Z,12000
2016-07-07T06:33:23.357Z,11736
2016-07-07T06:34:23.252Z,10988
2016-07-07T06:35:23.346Z,10756
2016-07-07T06:36:23.310Z,10212
2016-07-07T06:37:23.231Z,10632
2016-07-07T06:38:23.311Z,10980
2016-07-07T06:39:23.216Z,11780
2016-07-07T06:40:23.198Z,12160
2016-07-07T06:41:23.165Z,11916
2016-07-07T06:42:23.369Z,11576
2016-07-07T06:43:23.384Z,10720
2016-07-07T06:44:23.309Z,10892
2016-07-07T06:45:23.281Z,12208
2016-07-07T06:46:23.275Z,14920
2016-07-07T06:47:23.141Z,15724
2016-07-07T06:48:23.091Z,12240
2016-07-07T06:49:23.183Z,15792
2016-07-07T06:50:23.170Z,20256
2016-07-07T06:51:23.273Z,25024
2016-07-07T06:52:23.196Z,29888
2016-07-07T06:53:23.170Z,38784
2016-07-07T06:54:23.861Z,39456
2016-07-07T06:55:23.187Z,40000
2016-07-07T06:56:23.293Z,32416
2016-07-07T06:57:23.155Z,40032
2016-07-07T06:58:23.246Z,49280
2016-07-07T06:59:23.115Z,47264
2016-07-07T07:00:23.242Z,38240
2016-07-07T07:01:23.148Z,39872
2016-07-07T07:02:23.132Z,44672
2016-07-07T07:03:23.142Z,41184
2016-07-07T07:04:23.241Z,48928
2016-07-07T07:05:23.298Z,54528
2016-07-07T07:06:23.135Z,56800
2016-07-07T07:07:23.243Z,55808
2016-07-07T07:08:23.094Z,54656
2016-07-07T07:09:23.234Z,33248
2016-07-07T07:10:23.775Z,54048
2016-07-07T07:11:23.266Z,52800
2016-07-07T07:12:23.106Z,54912
2016-07-07T07:13:23.158Z,60096
2016-07-07T07:14:23.135Z,61696
2016-07-07T07:15:23.139Z,59360
2016-07-07T07:16:23.153Z,59776
2016-07-07T07:17:23.124Z,62752
2016-07-07T07:18:23.175Z,56704
2016-07-07T07:19:23.307Z,50624
2016-07-07T07:20:23.748Z,52384
2016-07-07T07:21:23.191Z,42656
2016-07-07T07:22:23.247Z,24224
2016-07-07T07:23:23.161Z,12844
2016-07-07T07:24:23.322Z,13964
2016-07-07T07:25:23.267Z,55232
2016-07-07T07:26:23.221Z,48992
2016-07-07T07:27:23.263Z,46656
2016-07-07T07:28:23.225Z,32544
2016-07-07T07:29:23.138Z,63200
2016-07-07T07:30:23.398Z,67552
2016-07-07T07:31:23.140Z,69504
2016-07-07T07:32:23.266Z,12476
2016-07-07T07:33:23.351Z,10156
2016-07-07T07:34:23.198Z,45088
2016-07-07T07:35:23.342Z,18304
2016-07-07T07:36:23.307Z,11164
2016-07-07T07:37:23.329Z,13780
2016-07-07T07:38:23.291Z,18208
2016-07-07T07:39:23.216Z,14320
2016-07-07T07:40:23.316Z,73184
2016-07-07T07:41:23.381Z,66048
2016-07-07T07:42:23.124Z,8280
2016-07-07T07:43:23.343Z,7080
2016-07-07T07:44:23.291Z,8976
2016-07-07T07:45:23.337Z,11904
2016-07-07T07:46:23.348Z,71296
2016-07-07T07:47:23.197Z,73376
2016-07-07T07:48:23.407Z,72128
2016-07-07T07:49:23.245Z,66176
2016-07-07T07:50:23.447Z,27424
2016-07-07T07:51:23.259Z,47264
2016-07-07T07:52:23.359Z,71552
2016-07-07T07:53:23.365Z,57152
2016-07-07T07:54:23.355Z,9464
2016-07-07T07:55:23.268Z,7768
2016-07-07T07:56:23.162Z,7588
2016-07-07T07:57:23.444Z,7696
2016-07-07T07:58:23.194Z,6848
2016-07-07T07:59:23.257Z,6156
2016-07-07T08:00:23.256Z,7104
2016-07-07T08:01:23.442Z,8184
2016-07-07T08:02:23.855Z,75808
2016-07-07T08:03:23.447Z,72032
2016-07-07T08:04:23.397Z,48416
2016-07-07T08:05:23.572Z,20000
2016-07-07T08:06:24.068Z,9664
2016-07-07T08:07:23.336Z,10384
2016-07-07T08:08:23.416Z,10196
2016-07-07T08:09:23.422Z,11752
2016-07-07T08:10:23.442Z,10524
2016-07-07T08:11:23.414Z,10484
2016-07-07T08:12:23.321Z,11944
2016-07-07T08:13:23.307Z,11908
2016-07-07T08:14:23.213Z,12480
2016-07-07T08:15:23.485Z,12296
2016-07-07T08:16:23.385Z,11412
2016-07-07T08:17:23.444Z,11156
2016-07-07T08:18:23.395Z,10864
2016-07-07T08:19:23.982Z,9316
2016-07-07T08:20:23.439Z,8492
2016-07-07T08:21:23.465Z,7804
2016-07-07T08:22:23.491Z,7096
2016-07-07T08:23:23.422Z,7872
2016-07-07T08:24:23.414Z,8980
2016-07-07T08:25:23.480Z,9972
2016-07-07T08:26:23.510Z,9892
2016-07-07T08:27:23.518Z,9416
2016-07-07T08:28:23.420Z,9580
2016-07-07T08:29:23.357Z,11056
2016-07-07T08:30:23.269Z,12852
2016-07-07T08:31:23.516Z,14248
2016-07-07T08:32:23.495Z,14836
2016-07-07T08:33:23.560Z,15256
2016-07-07T08:34:23.579Z,14940
2016-07-07T08:35:23.500Z,14468
2016-07-07T08:36:23.395Z,14440
2016-07-07T08:37:23.471Z,12652
2016-07-07T08:38:23.326Z,11652
2016-07-07T08:39:23.472Z,11036
2016-07-07T08:40:23.503Z,11432
2016-07-07T08:41:23.497Z,12388
2016-07-07T08:42:23.497Z,12512
2016-07-07T08:43:23.442Z,10344
2016-07-07T08:44:23.448Z,8860
2016-07-07T08:45:23.529Z,8240
2016-07-07T08:46:23.362Z,7108
2016-07-07T08:47:23.485Z,6760
2016-07-07T08:48:23.332Z,6532
2016-07-07T08:49:23.427Z,6544
2016-07-07T08:50:23.511Z,6152
2016-07-07T08:51:23.496Z,5836
2016-07-07T08:52:23.388Z,5696
2016-07-07T08:53:23.982Z,5820
2016-07-07T08:54:23.575Z,5816
2016-07-07T08:55:23.526Z,5768
2016-07-07T08:56:23.491Z,5788
2016-07-07T08:57:23.354Z,5840
2016-07-07T08:58:23.456Z,5952
2016-07-07T08:59:23.450Z,6096
2016-07-07T09:00:23.455Z,5860
2016-07-07T09:01:23.343Z,6060
2016-07-07T09:02:23.455Z,6800
2016-07-07T09:03:23.460Z,8100
2016-07-07T09:04:23.489Z,8352
2016-07-07T09:05:23.551Z,10596
2016-07-07T09:06:23.346Z,12168
2016-07-07T09:07:23.543Z,13360
2016-07-07T09:08:23.501Z,13060
2016-07-07T09:09:23.508Z,12552
2016-07-07T09:10:23.420Z,11604
2016-07-07T09:11:23.486Z,10500
2016-07-07T09:12:23.564Z,9236
2016-07-07T09:13:23.363Z,7836
2016-07-07T09:14:23.360Z,7316
2016-07-07T09:15:23.352Z,7076
2016-07-07T09:16:23.307Z,7508
2016-07-07T09:17:23.339Z,7904
2016-07-07T09:18:23.577Z,8632
2016-07-07T09:19:23.503Z,8728
2016-07-07T09:20:23.482Z,8872
2016-07-07T09:21:23.298Z,8988
2016-07-07T09:22:23.484Z,8844
2016-07-07T09:23:23.432Z,8968
2016-07-07T09:24:24.179Z,10008
2016-07-07T09:25:23.308Z,10204
2016-07-07T09:26:23.292Z,12296
2016-07-07T09:27:23.278Z,14316
2016-07-07T09:28:23.286Z,14804
2016-07-07T09:29:23.303Z,14572
2016-07-07T09:30:23.296Z,14488
2016-07-07T09:31:23.286Z,14292
2016-07-07T09:32:23.298Z,13008
2016-07-07T09:33:23.285Z,10744
2016-07-07T09:34:23.292Z,9188
2016-07-07T09:35:23.316Z,7832
2016-07-07T09:36:23.318Z,7564
2016-07-07T09:37:23.283Z,6524
2016-07-07T09:38:23.301Z,5920
2016-07-07T09:39:23.306Z,5704
2016-07-07T09:40:23.270Z,5752
2016-07-07T09:41:23.280Z,6140
2016-07-07T09:42:23.944Z,6236
2016-07-07T09:43:23.351Z,7376
2016-07-07T09:44:23.535Z,7620
2016-07-07T09:45:23.582Z,8412
2016-07-07T09:46:23.473Z,9648
2016-07-07T09:47:23.551Z,11000
2016-07-07T09:48:23.421Z,11892
2016-07-07T09:49:23.540Z,12788
2016-07-07T09:50:23.560Z,13732
2016-07-07T09:51:23.458Z,14024
2016-07-07T09:52:23.582Z,13868
2016-07-07T09:53:23.539Z,13272
2016-07-07T09:54:23.589Z,12832
2016-07-07T09:55:23.565Z,13676
2016-07-07T09:56:23.582Z,13692
2016-07-07T09:57:23.556Z,12972
2016-07-07T09:58:23.614Z,11848
2016-07-07T09:59:23.313Z,11452
2016-07-07T10:00:23.285Z,11584
2016-07-07T10:01:23.497Z,11392
2016-07-07T10:02:23.491Z,10740
2016-07-07T10:03:23.507Z,10344
2016-07-07T10:04:23.466Z,9196
2016-07-07T10:05:23.496Z,8184
2016-07-07T10:06:23.452Z,7384
2016-07-07T10:07:23.499Z,6396
2016-07-07T10:08:23.488Z,5660
2016-07-07T10:09:23.526Z,5444
2016-07-07T10:10:23.485Z,4876
2016-07-07T10:11:23.535Z,5408
2016-07-07T10:12:23.393Z,5572
2016-07-07T10:13:23.553Z,6176
2016-07-07T10:14:23.522Z,6928
2016-07-07T10:15:23.312Z,6576
2016-07-07T10:16:23.501Z,6908
2016-07-07T10:17:24.077Z,6492
2016-07-07T10:18:23.409Z,6360
2016-07-07T10:19:23.587Z,6420
2016-07-07T10:20:23.354Z,6696
2016-07-07T10:21:23.450Z,6888
2016-07-07T10:22:23.387Z,7192
2016-07-07T10:23:23.411Z,7820
2016-07-07T10:24:23.373Z,8728
2016-07-07T10:25:23.547Z,9288
2016-07-07T10:26:23.449Z,9228
2016-07-07T10:27:23.456Z,9484
2016-07-07T10:28:23.426Z,9484
2016-07-07T10:29:23.434Z,9544
2016-07-07T10:30:23.484Z,8508
2016-07-07T10:31:23.585Z,8172
2016-07-07T10:32:23.510Z,7144
2016-07-07T10:33:23.368Z,6316
2016-07-07T10:34:23.252Z,5816
2016-07-07T10:35:23.541Z,6076
2016-07-07T10:36:23.518Z,6744
2016-07-07T10:37:23.340Z,7980
2016-07-07T10:38:23.379Z,8992
2016-07-07T10:39:23.538Z,8916
2016-07-07T10:40:23.522Z,9200
2016-07-07T10:41:23.475Z,9964
2016-07-07T10:42:23.473Z,10236
2016-07-07T10:43:23.274Z,8516
2016-07-07T10:44:23.493Z,7864
2016-07-07T10:45:23.504Z,7392
2016-07-07T10:46:23.347Z,7184
2016-07-07T10:47:23.468Z,7120
2016-07-07T10:48:23.948Z,6540
2016-07-07T10:49:23.284Z,6088
2016-07-07T10:50:23.492Z,5516
2016-07-07T10:51:23.504Z,5840
2016-07-07T10:52:23.522Z,6564
2016-07-07T10:53:23.295Z,7420
2016-07-07T10:54:23.438Z,6796
2016-07-07T10:55:23.469Z,5916
2016-07-07T10:56:23.470Z,5440
2016-07-07T10:57:23.599Z,4688
2016-07-07T10:58:23.306Z,4160
2016-07-07T10:59:23.327Z,3884
2016-07-07T11:00:23.567Z,3804
2016-07-07T11:01:23.539Z,3776
2016-07-07T11:02:23.433Z,3800
2016-07-07T11:03:23.423Z,4336
2016-07-07T11:04:23.590Z,5244
2016-07-07T11:05:23.551Z,6096
2016-07-07T11:06:23.396Z,7172
2016-07-07T11:07:23.560Z,8040
2016-07-07T11:08:23.495Z,7980
2016-07-07T11:09:23.492Z,7664
2016-07-07T11:10:23.510Z,8052
2016-07-07T11:11:23.600Z,9016
2016-07-07T11:12:23.516Z,8832
2016-07-07T11:13:23.446Z,8084
2016-07-07T11:14:23.374Z,8104
2016-07-07T11:15:23.369Z,7936
2016-07-07T11:16:23.427Z,7388
2016-07-07T11:17:23.335Z,6340
2016-07-07T11:18:23.444Z,4960
2016-07-07T11:19:23.274Z,4232
2016-07-07T11:20:23.263Z,3952
2016-07-07T11:21:23.326Z,3832
2016-07-07T11:22:23.308Z,3780
2016-07-07T11:23:23.372Z,3920
2016-07-07T11:24:23.336Z,4388
2016-07-07T11:25:23.280Z,4580
2016-07-07T11:26:23.284Z,4592
2016-07-07T11:27:23.258Z,4792
2016-07-07T11:28:23.257Z,4636
2016-07-07T11:29:23.356Z,4420
2016-07-07T11:30:23.329Z,4468
2016-07-07T11:31:23.301Z,5036
2016-07-07T11:32:23.288Z,4744
2016-07-07T11:33:23.292Z,4736
2016-07-07T11:34:23.253Z,4968
2016-07-07T11:35:23.374Z,4524
2016-07-07T11:36:23.340Z,4580
2016-07-07T11:37:23.363Z,4384
2016-07-07T11:38:23.338Z,3972
2016-07-07T11:39:23.337Z,3836
2016-07-07T11:40:23.304Z,3364
2016-07-07T11:41:23.376Z,3368
2016-07-07T11:42:23.259Z,3784
2016-07-07T11:43:23.275Z,4020
2016-07-07T11:44:23.639Z,4400
2016-07-07T11:45:23.398Z,4464
2016-07-07T11:46:23.354Z,4084
2016-07-07T11:47:23.272Z,3748
2016-07-07T11:48:23.348Z,3784
2016-07-07T11:49:23.330Z,3964
2016-07-07T11:50:23.307Z,3844
2016-07-07T11:51:23.328Z,3652
2016-07-07T11:52:23.316Z,3328
2016-07-07T11:53:23.324Z,3152
2016-07-07T11:54:23.253Z,3100
2016-07-07T11:55:23.340Z,3092
2016-07-07T11:56:23.266Z,3124
2016-07-07T11:57:23.317Z,3272
2016-07-07T11:58:23.327Z,3428
2016-07-07T11:59:23.638Z,3428
2016-07-07T12:00:23.475Z,3404
2016-07-07T12:01:23.354Z,3636
2016-07-07T12:02:23.466Z,3628
2016-07-07T12:03:23.453Z,3996
2016-07-07T12:04:23.422Z,4288
2016-07-07T12:05:23.477Z,4060
2016-07-07T12:06:23.243Z,3660
2016-07-07T12:07:23.561Z,3428
2016-07-07T12:08:23.502Z,3264
2016-07-07T12:09:23.526Z,3292
2016-07-07T12:10:23.373Z,3280
2016-07-07T12:11:23.469Z,3092
2016-07-07T12:12:23.522Z,3116
2016-07-07T12:13:23.508Z,3164
2016-07-07T12:14:23.415Z,3124
2016-07-07T12:15:23.444Z,3064
2016-07-07T12:16:23.298Z,3040
2016-07-07T12:17:23.305Z,3016
2016-07-07T12:18:23.259Z,2984
2016-07-07T12:19:23.228Z,2972
2016-07-07T12:20:23.246Z,2956
2016-07-07T12:21:23.296Z,2956
2016-07-07T12:22:23.298Z,2988
2016-07-07T12:23:23.260Z,3028
2016-07-07T12:24:23.241Z,2988
2016-07-07T12:25:23.233Z,2976
2016-07-07T12:26:23.235Z,2972
2016-07-07T12:27:23.332Z,2968
2016-07-07T12:28:23.352Z,2940
2016-07-07T12:29:23.322Z,2920
2016-07-07T12:30:23.374Z,2916
2016-07-07T12:31:23.276Z,2944
2016-07-07T12:32:23.295Z,2932
2016-07-07T12:33:23.365Z,2880
2016-07-07T12:34:23.332Z,2872
2016-07-07T12:35:23.291Z,2864
2016-07-07T12:36:23.254Z,2864
2016-07-07T12:37:23.231Z,2864
2016-07-07T12:38:23.233Z,2868
2016-07-07T12:39:23.258Z,2948
2016-07-07T12:40:23.297Z,2964
2016-07-07T12:41:23.406Z,2948
2016-07-07T12:42:23.478Z,2908
2016-07-07T12:43:23.287Z,2932
2016-07-07T12:44:23.511Z,2916
2016-07-07T12:45:23.403Z,2904
2016-07-07T12:46:23.396Z,2904
2016-07-07T12:47:23.300Z,2900
2016-07-07T12:48:23.498Z,2904
2016-07-07T12:49:23.504Z,2908
2016-07-07T12:50:23.236Z,2904
2016-07-07T12:51:26.439Z,2908
2016-07-07T12:52:23.119Z,2932
2016-07-07T12:53:23.324Z,2928
2016-07-07T12:54:23.274Z,2896
2016-07-07T12:55:23.273Z,2880
2016-07-07T12:56:23.401Z,2868
2016-07-07T12:57:23.451Z,2868
2016-07-07T12:58:23.378Z,2872
2016-07-07T12:59:24.010Z,2872
2016-07-07T13:00:23.283Z,2872
2016-07-07T13:01:23.500Z,2876
2016-07-07T13:02:23.464Z,2892
2016-07-07T13:03:23.449Z,2928
2016-07-07T13:04:23.419Z,2896
2016-07-07T13:05:23.433Z,2888
2016-07-07T13:06:23.388Z,2888
2016-07-07T13:07:23.422Z,2896
2016-07-07T13:08:23.347Z,2896
2016-07-07T13:09:23.345Z,2908
2016-07-07T13:10:23.393Z,2912
2016-07-07T13:11:23.359Z,2920
2016-07-07T13:13:23.267Z,2928
2016-07-07T13:14:23.427Z,2928
2016-07-07T13:15:23.414Z,2924
2016-07-07T13:16:23.388Z,2936
2016-07-07T13:17:23.374Z,2932
2016-07-07T13:18:23.368Z,2936
2016-07-07T13:19:23.375Z,2932
2016-07-07T13:20:23.249Z,2944
2016-07-07T13:21:23.407Z,2972
2016-07-07T13:22:23.315Z,2984
2016-07-07T13:23:23.418Z,3048
2016-07-07T13:24:23.436Z,3144
2016-07-07T13:25:23.254Z,3448
2016-07-07T13:26:23.253Z,3588
2016-07-07T13:27:23.408Z,3908
2016-07-07T13:28:23.242Z,3896
2016-07-07T13:29:23.354Z,3816
2016-07-07T13:30:23.213Z,3652
2016-07-07T13:31:23.356Z,3764
2016-07-07T13:32:23.429Z,3708